sensor_id;sensor_type;location;lat;lon;timestamp;temperature;humidity
38938;DHT22;24727;51.974;20.868;2023-02-04T00:02:02;0.40;4.90
38938;DHT22;24727;51.974;20.868;2023-02-04T00:04:31;0.20;4.80
38938;DHT22;24727;51.974;20.868;2023-02-04T00:06:56;0.10;16.30
38938;DHT22;24727;51.974;20.868;2023-02-04T00:09:22;0.00;11.30
38938;DHT22;24727;51.974;20.868;2023-02-04T00:11:48;0.00;21.40
38938;DHT22;24727;51.974;20.868;2023-02-04T00:14:14;0.10;32.30
38938;DHT22;24727;51.974;20.868;2023-02-04T00:16:42;0.20;44.00
38938;DHT22;24727;51.974;20.868;2023-02-04T00:19:08;0.00;32.70
38938;DHT22;24727;51.974;20.868;2023-02-04T00:21:34;-0.20;38.20
38938;DHT22;24727;51.974;20.868;2023-02-04T00:24:00;-0.20;47.90
38938;DHT22;24727;51.974;20.868;2023-02-04T00:26:27;-0.20;51.10
38938;DHT22;24727;51.974;20.868;2023-02-04T00:28:53;-0.20;58.90
38938;DHT22;24727;51.974;20.868;2023-02-04T00:31:20;-0.20;60.60
38938;DHT22;24727;51.974;20.868;2023-02-04T00:33:46;0.00;69.70
38938;DHT22;24727;51.974;20.868;2023-02-04T00:36:12;0.10;70.60
38938;DHT22;24727;51.974;20.868;2023-02-04T00:38:40;-0.10;59.30
38938;DHT22;24727;51.974;20.868;2023-02-04T00:41:12;-0.20;56.20
38938;DHT22;24727;51.974;20.868;2023-02-04T00:43:38;-0.10;62.80
38938;DHT22;24727;51.974;20.868;2023-02-04T00:46:04;-0.20;54.30
38938;DHT22;24727;51.974;20.868;2023-02-04T00:48:37;-0.30;53.80
38938;DHT22;24727;51.974;20.868;2023-02-04T00:51:03;-0.30;59.50
38938;DHT22;24727;51.974;20.868;2023-02-04T00:53:30;-0.20;64.70
38938;DHT22;24727;51.974;20.868;2023-02-04T00:55:56;-0.10;66.70
38938;DHT22;24727;51.974;20.868;2023-02-04T00:58:22;0.00;64.40
38938;DHT22;24727;51.974;20.868;2023-02-04T01:00:49;-0.10;48.90
38938;DHT22;24727;51.974;20.868;2023-02-04T01:03:15;-0.20;46.30
38938;DHT22;24727;51.974;20.868;2023-02-04T01:05:42;-0.30;46.90
38938;DHT22;24727;51.974;20.868;2023-02-04T01:08:10;-0.30;48.70
38938;DHT22;24727;51.974;20.868;2023-02-04T01:10:36;-0.30;55.00
38938;DHT22;24727;51.974;20.868;2023-02-04T01:13:02;-0.20;62.20
38938;DHT22;24727;51.974;20.868;2023-02-04T01:15:28;-0.20;58.60
38938;DHT22;24727;51.974;20.868;2023-02-04T01:17:54;-0.20;58.20
38938;DHT22;24727;51.974;20.868;2023-02-04T01:20:21;-0.50;46.60
38938;DHT22;24727;51.974;20.868;2023-02-04T01:22:47;-0.50;65.10
38938;DHT22;24727;51.974;20.868;2023-02-04T01:25:14;-0.40;69.00
38938;DHT22;24727;51.974;20.868;2023-02-04T01:27:40;-0.50;66.60
38938;DHT22;24727;51.974;20.868;2023-02-04T01:30:07;-0.40;71.40
38938;DHT22;24727;51.974;20.868;2023-02-04T01:32:34;-0.30;72.90
38938;DHT22;24727;51.974;20.868;2023-02-04T01:35:00;-0.30;69.10
38938;DHT22;24727;51.974;20.868;2023-02-04T01:37:27;-0.20;68.50
38938;DHT22;24727;51.974;20.868;2023-02-04T01:39:53;-0.40;60.90
38938;DHT22;24727;51.974;20.868;2023-02-04T01:42:19;-0.30;65.60
38938;DHT22;24727;51.974;20.868;2023-02-04T01:44:45;-0.40;55.10
38938;DHT22;24727;51.974;20.868;2023-02-04T01:47:12;-0.30;65.00
38938;DHT22;24727;51.974;20.868;2023-02-04T01:49:39;-0.10;68.50
38938;DHT22;24727;51.974;20.868;2023-02-04T01:52:05;-0.20;58.30
38938;DHT22;24727;51.974;20.868;2023-02-04T01:54:32;-0.30;49.60
38938;DHT22;24727;51.974;20.868;2023-02-04T01:56:58;-0.30;50.80
38938;DHT22;24727;51.974;20.868;2023-02-04T01:59:25;-0.30;48.10
38938;DHT22;24727;51.974;20.868;2023-02-04T02:01:52;-0.30;56.20
38938;DHT22;24727;51.974;20.868;2023-02-04T02:04:32;-0.30;53.60
38938;DHT22;24727;51.974;20.868;2023-02-04T02:07:02;0.00;55.40
38938;DHT22;24727;51.974;20.868;2023-02-04T02:09:29;-0.30;26.40
38938;DHT22;24727;51.974;20.868;2023-02-04T02:11:57;-0.30;25.30
38938;DHT22;24727;51.974;20.868;2023-02-04T02:14:23;-0.40;32.40
38938;DHT22;24727;51.974;20.868;2023-02-04T02:16:49;-0.40;45.50
38938;DHT22;24727;51.974;20.868;2023-02-04T02:19:21;-0.30;54.20
38938;DHT22;24727;51.974;20.868;2023-02-04T02:22:03;-0.40;39.60
38938;DHT22;24727;51.974;20.868;2023-02-04T02:24:32;-0.20;57.60
38938;DHT22;24727;51.974;20.868;2023-02-04T02:27:10;-0.10;51.60
38938;DHT22;24727;51.974;20.868;2023-02-04T02:29:41;-0.20;33.00
38938;DHT22;24727;51.974;20.868;2023-02-04T02:32:10;-0.10;45.00
38938;DHT22;24727;51.974;20.868;2023-02-04T02:34:37;0.00;36.40
38938;DHT22;24727;51.974;20.868;2023-02-04T02:37:05;-0.20;20.90
38938;DHT22;24727;51.974;20.868;2023-02-04T02:39:34;-0.30;19.80
38938;DHT22;24727;51.974;20.868;2023-02-04T02:42:01;-0.20;43.60
38938;DHT22;24727;51.974;20.868;2023-02-04T02:44:28;-0.10;54.50
38938;DHT22;24727;51.974;20.868;2023-02-04T02:46:56;-0.60;21.10
38938;DHT22;24727;51.974;20.868;2023-02-04T02:49:22;-0.40;38.50
38938;DHT22;24727;51.974;20.868;2023-02-04T02:51:48;-0.30;34.80
38938;DHT22;24727;51.974;20.868;2023-02-04T02:54:23;-0.30;37.90
38938;DHT22;24727;51.974;20.868;2023-02-04T02:56:51;-0.30;29.90
38938;DHT22;24727;51.974;20.868;2023-02-04T02:59:18;-0.20;34.20
38938;DHT22;24727;51.974;20.868;2023-02-04T03:01:50;-0.30;20.50
38938;DHT22;24727;51.974;20.868;2023-02-04T03:04:19;-0.30;17.00
38938;DHT22;24727;51.974;20.868;2023-02-04T03:06:47;-0.50;11.10
38938;DHT22;24727;51.974;20.868;2023-02-04T03:09:14;-0.40;21.80
38938;DHT22;24727;51.974;20.868;2023-02-04T03:11:41;-0.30;18.70
38938;DHT22;24727;51.974;20.868;2023-02-04T03:14:07;-0.40;8.40
38938;DHT22;24727;51.974;20.868;2023-02-04T03:16:33;-0.40;6.00
38938;DHT22;24727;51.974;20.868;2023-02-04T03:19:02;-0.40;15.00
38938;DHT22;24727;51.974;20.868;2023-02-04T03:21:32;-0.30;10.00
38938;DHT22;24727;51.974;20.868;2023-02-04T03:23:59;-0.60;1.00
38938;DHT22;24727;51.974;20.868;2023-02-04T03:26:25;-0.60;8.90
38938;DHT22;24727;51.974;20.868;2023-02-04T03:28:55;-0.40;11.60
38938;DHT22;24727;51.974;20.868;2023-02-04T03:31:21;-0.70;1.00
38938;DHT22;24727;51.974;20.868;2023-02-04T03:33:48;-0.60;5.70
38938;DHT22;24727;51.974;20.868;2023-02-04T03:36:14;-0.60;12.20
38938;DHT22;24727;51.974;20.868;2023-02-04T03:38:40;-0.40;12.00
38938;DHT22;24727;51.974;20.868;2023-02-04T03:41:07;-0.40;4.60
38938;DHT22;24727;51.974;20.868;2023-02-04T03:43:34;-0.40;1.00
38938;DHT22;24727;51.974;20.868;2023-02-04T03:45:59;-0.40;1.00
38938;DHT22;24727;51.974;20.868;2023-02-04T03:48:25;-0.30;1.00
38938;DHT22;24727;51.974;20.868;2023-02-04T03:50:51;0.00;12.00
38938;DHT22;24727;51.974;20.868;2023-02-04T03:53:17;0.00;1.00
38938;DHT22;24727;51.974;20.868;2023-02-04T03:55:43;0.00;1.00
38938;DHT22;24727;51.974;20.868;2023-02-04T03:58:10;0.20;1.00
38938;DHT22;24727;51.974;20.868;2023-02-04T04:00:36;-0.10;1.00
38938;DHT22;24727;51.974;20.868;2023-02-04T04:03:02;0.10;1.00
38938;DHT22;24727;51.974;20.868;2023-02-04T04:05:28;0.10;1.00
38938;DHT22;24727;51.974;20.868;2023-02-04T04:07:54;-0.10;1.00
38938;DHT22;24727;51.974;20.868;2023-02-04T04:10:20;-0.30;1.00
38938;DHT22;24727;51.974;20.868;2023-02-04T04:12:46;-0.50;1.00
38938;DHT22;24727;51.974;20.868;2023-02-04T04:15:12;-0.40;3.60
38938;DHT22;24727;51.974;20.868;2023-02-04T04:17:38;-0.20;1.00
38938;DHT22;24727;51.974;20.868;2023-02-04T04:20:04;-0.60;1.00
38938;DHT22;24727;51.974;20.868;2023-02-04T04:22:30;-0.20;27.40
38938;DHT22;24727;51.974;20.868;2023-02-04T04:24:56;-0.20;18.20
38938;DHT22;24727;51.974;20.868;2023-02-04T04:27:23;-0.10;1.00
38938;DHT22;24727;51.974;20.868;2023-02-04T04:29:49;-0.10;1.00
38938;DHT22;24727;51.974;20.868;2023-02-04T04:32:15;-0.30;1.00
38938;DHT22;24727;51.974;20.868;2023-02-04T04:34:42;-0.20;1.00
38938;DHT22;24727;51.974;20.868;2023-02-04T04:37:09;-0.30;1.00
38938;DHT22;24727;51.974;20.868;2023-02-04T04:39:36;-0.10;1.00
38938;DHT22;24727;51.974;20.868;2023-02-04T04:42:03;-0.20;1.00
38938;DHT22;24727;51.974;20.868;2023-02-04T04:44:29;-0.20;1.00
38938;DHT22;24727;51.974;20.868;2023-02-04T04:46:55;0.00;1.00
38938;DHT22;24727;51.974;20.868;2023-02-04T04:49:23;-0.30;1.00
38938;DHT22;24727;51.974;20.868;2023-02-04T04:51:50;-0.10;1.00
38938;DHT22;24727;51.974;20.868;2023-02-04T04:54:15;-0.30;1.00
38938;DHT22;24727;51.974;20.868;2023-02-04T04:56:41;-0.60;1.00
38938;DHT22;24727;51.974;20.868;2023-02-04T04:59:08;-0.60;1.00
38938;DHT22;24727;51.974;20.868;2023-02-04T05:01:34;-0.50;1.00
38938;DHT22;24727;51.974;20.868;2023-02-04T05:04:00;-0.70;1.00
38938;DHT22;24727;51.974;20.868;2023-02-04T05:06:28;-0.50;1.00
38938;DHT22;24727;51.974;20.868;2023-02-04T05:08:54;-0.70;1.00
38938;DHT22;24727;51.974;20.868;2023-02-04T05:11:20;-0.40;1.00
38938;DHT22;24727;51.974;20.868;2023-02-04T05:13:46;-0.70;1.00
38938;DHT22;24727;51.974;20.868;2023-02-04T05:16:12;-0.70;1.00
38938;DHT22;24727;51.974;20.868;2023-02-04T05:18:40;-1.10;1.00
38938;DHT22;24727;51.974;20.868;2023-02-04T05:21:06;-1.20;1.00
38938;DHT22;24727;51.974;20.868;2023-02-04T05:23:34;-1.00;1.00
38938;DHT22;24727;51.974;20.868;2023-02-04T05:26:00;-0.80;1.00
38938;DHT22;24727;51.974;20.868;2023-02-04T05:28:27;-1.10;1.00
38938;DHT22;24727;51.974;20.868;2023-02-04T05:30:53;-1.20;1.00
38938;DHT22;24727;51.974;20.868;2023-02-04T05:33:19;-1.20;1.00
38938;DHT22;24727;51.974;20.868;2023-02-04T05:35:45;-1.20;1.00
38938;DHT22;24727;51.974;20.868;2023-02-04T05:38:11;-1.30;1.00
38938;DHT22;24727;51.974;20.868;2023-02-04T05:40:37;-1.20;1.00
38938;DHT22;24727;51.974;20.868;2023-02-04T05:43:03;-1.20;1.00
38938;DHT22;24727;51.974;20.868;2023-02-04T05:45:32;-1.30;1.00
38938;DHT22;24727;51.974;20.868;2023-02-04T05:47:58;-1.20;7.50
38938;DHT22;24727;51.974;20.868;2023-02-04T05:50:24;-1.30;1.00
38938;DHT22;24727;51.974;20.868;2023-02-04T05:52:50;-1.30;8.00
38938;DHT22;24727;51.974;20.868;2023-02-04T05:55:16;-1.00;26.70
38938;DHT22;24727;51.974;20.868;2023-02-04T05:57:44;-1.10;13.30
38938;DHT22;24727;51.974;20.868;2023-02-04T06:00:11;-1.00;3.50
38938;DHT22;24727;51.974;20.868;2023-02-04T06:02:37;-1.00;1.00
38938;DHT22;24727;51.974;20.868;2023-02-04T06:05:05;-1.20;1.00
38938;DHT22;24727;51.974;20.868;2023-02-04T06:07:31;-1.20;4.20
38938;DHT22;24727;51.974;20.868;2023-02-04T06:09:57;-0.90;17.80
38938;DHT22;24727;51.974;20.868;2023-02-04T06:12:23;-1.00;12.20
38938;DHT22;24727;51.974;20.868;2023-02-04T06:14:50;-1.20;1.00
38938;DHT22;24727;51.974;20.868;2023-02-04T06:17:17;-1.30;7.30
38938;DHT22;24727;51.974;20.868;2023-02-04T06:19:43;-1.20;14.90
38938;DHT22;24727;51.974;20.868;2023-02-04T06:22:08;-1.20;8.40
38938;DHT22;24727;51.974;20.868;2023-02-04T06:24:36;-1.20;10.40
38938;DHT22;24727;51.974;20.868;2023-02-04T06:27:02;-1.30;7.80
38938;DHT22;24727;51.974;20.868;2023-02-04T06:29:28;-1.10;15.70
38938;DHT22;24727;51.974;20.868;2023-02-04T06:31:54;-1.00;18.50
38938;DHT22;24727;51.974;20.868;2023-02-04T06:34:21;-0.80;16.40
38938;DHT22;24727;51.974;20.868;2023-02-04T06:36:47;-1.00;1.00
38938;DHT22;24727;51.974;20.868;2023-02-04T06:39:14;-1.20;1.00
38938;DHT22;24727;51.974;20.868;2023-02-04T06:41:40;-1.10;1.00
38938;DHT22;24727;51.974;20.868;2023-02-04T06:44:07;-1.00;1.00
38938;DHT22;24727;51.974;20.868;2023-02-04T06:46:33;-1.00;1.00
38938;DHT22;24727;51.974;20.868;2023-02-04T06:48:59;-1.20;1.00
38938;DHT22;24727;51.974;20.868;2023-02-04T06:51:25;-1.30;1.00
38938;DHT22;24727;51.974;20.868;2023-02-04T06:53:51;-1.40;1.00
38938;DHT22;24727;51.974;20.868;2023-02-04T06:56:18;-1.40;1.00
38938;DHT22;24727;51.974;20.868;2023-02-04T06:58:44;-1.20;1.00
38938;DHT22;24727;51.974;20.868;2023-02-04T07:01:11;-1.30;1.00
38938;DHT22;24727;51.974;20.868;2023-02-04T07:03:37;-1.40;1.00
38938;DHT22;24727;51.974;20.868;2023-02-04T07:06:03;-1.40;1.00
38938;DHT22;24727;51.974;20.868;2023-02-04T07:08:31;-1.40;1.00
38938;DHT22;24727;51.974;20.868;2023-02-04T07:10:58;-1.40;1.00
38938;DHT22;24727;51.974;20.868;2023-02-04T07:13:26;-1.30;1.00
38938;DHT22;24727;51.974;20.868;2023-02-04T07:15:51;-1.40;1.00
38938;DHT22;24727;51.974;20.868;2023-02-04T07:18:17;-1.40;1.00
38938;DHT22;24727;51.974;20.868;2023-02-04T07:20:45;-1.50;1.00
38938;DHT22;24727;51.974;20.868;2023-02-04T07:23:11;-1.50;1.00
38938;DHT22;24727;51.974;20.868;2023-02-04T07:25:37;-1.50;1.00
38938;DHT22;24727;51.974;20.868;2023-02-04T07:28:04;-1.70;1.00
38938;DHT22;24727;51.974;20.868;2023-02-04T07:30:31;-1.80;1.00
38938;DHT22;24727;51.974;20.868;2023-02-04T07:32:58;-1.80;1.00
38938;DHT22;24727;51.974;20.868;2023-02-04T07:35:24;-1.90;1.00
38938;DHT22;24727;51.974;20.868;2023-02-04T07:37:50;-1.70;1.00
38938;DHT22;24727;51.974;20.868;2023-02-04T07:40:16;-1.70;1.00
38938;DHT22;24727;51.974;20.868;2023-02-04T07:42:43;-1.50;1.00
38938;DHT22;24727;51.974;20.868;2023-02-04T07:45:09;-1.70;1.00
38938;DHT22;24727;51.974;20.868;2023-02-04T07:47:36;-1.70;1.00
38938;DHT22;24727;51.974;20.868;2023-02-04T07:50:02;-1.80;1.00
38938;DHT22;24727;51.974;20.868;2023-02-04T07:52:28;-1.50;1.00
38938;DHT22;24727;51.974;20.868;2023-02-04T07:54:54;-1.50;1.00
38938;DHT22;24727;51.974;20.868;2023-02-04T07:57:20;-1.50;1.00
38938;DHT22;24727;51.974;20.868;2023-02-04T07:59:47;-1.40;1.00
38938;DHT22;24727;51.974;20.868;2023-02-04T08:02:13;-1.20;1.00
38938;DHT22;24727;51.974;20.868;2023-02-04T08:04:39;-1.30;1.00
38938;DHT22;24727;51.974;20.868;2023-02-04T08:07:05;-1.30;1.00
38938;DHT22;24727;51.974;20.868;2023-02-04T08:09:30;-1.30;1.00
38938;DHT22;24727;51.974;20.868;2023-02-04T08:11:56;-1.50;1.00
38938;DHT22;24727;51.974;20.868;2023-02-04T08:14:24;-1.40;1.00
38938;DHT22;24727;51.974;20.868;2023-02-04T08:16:50;-1.70;1.00
38938;DHT22;24727;51.974;20.868;2023-02-04T08:19:16;-1.50;1.00
38938;DHT22;24727;51.974;20.868;2023-02-04T08:21:45;-1.30;1.00
38938;DHT22;24727;51.974;20.868;2023-02-04T08:24:19;-1.00;1.00
38938;DHT22;24727;51.974;20.868;2023-02-04T08:26:45;-1.10;1.00
38938;DHT22;24727;51.974;20.868;2023-02-04T08:29:19;-1.10;1.00
38938;DHT22;24727;51.974;20.868;2023-02-04T08:31:45;-1.50;1.00
38938;DHT22;24727;51.974;20.868;2023-02-04T08:34:12;-1.50;1.00
38938;DHT22;24727;51.974;20.868;2023-02-04T08:36:38;-1.70;1.00
38938;DHT22;24727;51.974;20.868;2023-02-04T08:39:04;-1.60;1.00
38938;DHT22;24727;51.974;20.868;2023-02-04T08:41:30;-1.50;1.00
38938;DHT22;24727;51.974;20.868;2023-02-04T08:43:57;-1.60;1.00
38938;DHT22;24727;51.974;20.868;2023-02-04T08:46:24;-1.70;1.00
38938;DHT22;24727;51.974;20.868;2023-02-04T08:48:51;-1.80;1.00
38938;DHT22;24727;51.974;20.868;2023-02-04T08:51:17;-1.60;1.00
38938;DHT22;24727;51.974;20.868;2023-02-04T08:53:43;-1.60;1.00
38938;DHT22;24727;51.974;20.868;2023-02-04T08:56:09;-1.70;1.00
38938;DHT22;24727;51.974;20.868;2023-02-04T08:58:40;-1.60;1.00
38938;DHT22;24727;51.974;20.868;2023-02-04T09:01:07;-1.50;1.00
38938;DHT22;24727;51.974;20.868;2023-02-04T09:03:32;-1.60;1.00
38938;DHT22;24727;51.974;20.868;2023-02-04T09:05:59;-1.40;1.00
38938;DHT22;24727;51.974;20.868;2023-02-04T09:08:32;-1.50;1.00
38938;DHT22;24727;51.974;20.868;2023-02-04T09:10:58;-1.40;1.00
38938;DHT22;24727;51.974;20.868;2023-02-04T09:13:32;-1.30;1.00
38938;DHT22;24727;51.974;20.868;2023-02-04T09:15:58;-1.10;1.00
38938;DHT22;24727;51.974;20.868;2023-02-04T09:18:24;-0.90;1.00
38938;DHT22;24727;51.974;20.868;2023-02-04T09:20:52;-1.30;1.00
38938;DHT22;24727;51.974;20.868;2023-02-04T09:23:18;-1.20;1.00
38938;DHT22;24727;51.974;20.868;2023-02-04T09:25:45;-1.30;1.00
38938;DHT22;24727;51.974;20.868;2023-02-04T09:28:12;-1.10;1.00
38938;DHT22;24727;51.974;20.868;2023-02-04T09:30:41;-1.20;1.00
38938;DHT22;24727;51.974;20.868;2023-02-04T09:33:11;-1.00;1.00
38938;DHT22;24727;51.974;20.868;2023-02-04T09:35:38;-1.10;1.00
38938;DHT22;24727;51.974;20.868;2023-02-04T09:38:03;-1.20;1.00
38938;DHT22;24727;51.974;20.868;2023-02-04T09:40:33;-0.80;1.00
38938;DHT22;24727;51.974;20.868;2023-02-04T09:43:02;-0.60;1.00
38938;DHT22;24727;51.974;20.868;2023-02-04T09:45:31;-0.30;1.00
38938;DHT22;24727;51.974;20.868;2023-02-04T09:47:58;-0.60;1.00
38938;DHT22;24727;51.974;20.868;2023-02-04T09:50:28;-0.60;1.00
38938;DHT22;24727;51.974;20.868;2023-02-04T09:53:00;-0.90;1.00
38938;DHT22;24727;51.974;20.868;2023-02-04T09:55:34;-0.90;1.00
38938;DHT22;24727;51.974;20.868;2023-02-04T09:58:01;-0.60;1.00
38938;DHT22;24727;51.974;20.868;2023-02-04T10:00:30;-0.50;1.00
38938;DHT22;24727;51.974;20.868;2023-02-04T10:02:59;-0.50;1.00
38938;DHT22;24727;51.974;20.868;2023-02-04T10:05:30;-0.60;1.00
38938;DHT22;24727;51.974;20.868;2023-02-04T10:07:58;-0.70;1.00
38938;DHT22;24727;51.974;20.868;2023-02-04T10:10:26;-0.70;1.00
38938;DHT22;24727;51.974;20.868;2023-02-04T10:12:58;-0.70;1.00
38938;DHT22;24727;51.974;20.868;2023-02-04T10:15:24;-0.90;1.00
38938;DHT22;24727;51.974;20.868;2023-02-04T10:17:54;-0.90;1.00
38938;DHT22;24727;51.974;20.868;2023-02-04T10:20:23;-1.00;1.00
38938;DHT22;24727;51.974;20.868;2023-02-04T10:22:52;-1.00;1.00
38938;DHT22;24727;51.974;20.868;2023-02-04T10:25:21;-0.80;1.00
38938;DHT22;24727;51.974;20.868;2023-02-04T10:28:05;-0.90;1.00
38938;DHT22;24727;51.974;20.868;2023-02-04T10:30:39;-0.60;1.00
38938;DHT22;24727;51.974;20.868;2023-02-04T10:33:21;-0.90;1.00
38938;DHT22;24727;51.974;20.868;2023-02-04T10:35:54;-1.10;1.00
38938;DHT22;24727;51.974;20.868;2023-02-04T10:38:20;-1.30;1.00
38938;DHT22;24727;51.974;20.868;2023-02-04T10:40:59;-1.30;1.00
38938;DHT22;24727;51.974;20.868;2023-02-04T10:43:25;-1.20;1.00
38938;DHT22;24727;51.974;20.868;2023-02-04T10:45:58;-1.20;1.00
38938;DHT22;24727;51.974;20.868;2023-02-04T10:48:25;-1.30;1.00
38938;DHT22;24727;51.974;20.868;2023-02-04T10:50:51;-1.30;1.00
38938;DHT22;24727;51.974;20.868;2023-02-04T10:53:19;-1.30;1.00
38938;DHT22;24727;51.974;20.868;2023-02-04T10:56:16;-1.40;1.00
38938;DHT22;24727;51.974;20.868;2023-02-04T10:58:50;-1.50;1.00
38938;DHT22;24727;51.974;20.868;2023-02-04T11:01:16;-1.50;1.00
38938;DHT22;24727;51.974;20.868;2023-02-04T11:03:43;-1.40;1.00
38938;DHT22;24727;51.974;20.868;2023-02-04T11:06:16;-1.50;1.00
38938;DHT22;24727;51.974;20.868;2023-02-04T11:08:43;-1.50;1.00
38938;DHT22;24727;51.974;20.868;2023-02-04T11:11:25;-1.40;1.00
38938;DHT22;24727;51.974;20.868;2023-02-04T11:19:04;-1.10;1.00
38938;DHT22;24727;51.974;20.868;2023-02-04T11:24:25;-1.10;1.00
38938;DHT22;24727;51.974;20.868;2023-02-04T11:27:21;-1.10;1.00
38938;DHT22;24727;51.974;20.868;2023-02-04T11:29:47;-1.20;1.00
38938;DHT22;24727;51.974;20.868;2023-02-04T11:32:36;-1.20;1.00
38938;DHT22;24727;51.974;20.868;2023-02-04T11:37:42;-1.30;1.00
38938;DHT22;24727;51.974;20.868;2023-02-04T11:40:19;-1.20;1.00
38938;DHT22;24727;51.974;20.868;2023-02-04T11:42:45;-1.30;1.00
38938;DHT22;24727;51.974;20.868;2023-02-04T11:45:15;-1.30;1.00
38938;DHT22;24727;51.974;20.868;2023-02-04T11:47:43;-1.50;1.00
38938;DHT22;24727;51.974;20.868;2023-02-04T11:50:18;-1.40;1.00
38938;DHT22;24727;51.974;20.868;2023-02-04T11:52:46;-1.30;1.00
38938;DHT22;24727;51.974;20.868;2023-02-04T11:55:12;-1.40;1.00
38938;DHT22;24727;51.974;20.868;2023-02-04T11:57:42;-1.40;1.00
38938;DHT22;24727;51.974;20.868;2023-02-04T12:00:19;-1.40;1.00
38938;DHT22;24727;51.974;20.868;2023-02-04T12:02:48;-1.30;1.00
38938;DHT22;24727;51.974;20.868;2023-02-04T12:05:18;-1.30;1.00
38938;DHT22;24727;51.974;20.868;2023-02-04T12:07:47;-1.40;1.00
38938;DHT22;24727;51.974;20.868;2023-02-04T12:10:24;-1.40;1.00
38938;DHT22;24727;51.974;20.868;2023-02-04T12:12:54;-1.30;1.00
38938;DHT22;24727;51.974;20.868;2023-02-04T12:15:24;-1.30;1.00
38938;DHT22;24727;51.974;20.868;2023-02-04T12:20:33;-1.30;1.00
38938;DHT22;24727;51.974;20.868;2023-02-04T12:22:59;-1.20;1.00
38938;DHT22;24727;51.974;20.868;2023-02-04T12:25:25;-1.30;1.00
38938;DHT22;24727;51.974;20.868;2023-02-04T12:27:55;-1.30;1.00
38938;DHT22;24727;51.974;20.868;2023-02-04T12:30:23;-1.30;1.00
38938;DHT22;24727;51.974;20.868;2023-02-04T12:32:49;-1.30;1.00
38938;DHT22;24727;51.974;20.868;2023-02-04T12:35:17;-1.20;1.00
38938;DHT22;24727;51.974;20.868;2023-02-04T12:37:43;-1.10;1.00
38938;DHT22;24727;51.974;20.868;2023-02-04T12:40:14;-1.20;1.00
38938;DHT22;24727;51.974;20.868;2023-02-04T12:42:42;-1.20;1.00
38938;DHT22;24727;51.974;20.868;2023-02-04T12:45:09;-1.20;1.00
38938;DHT22;24727;51.974;20.868;2023-02-04T12:47:36;-1.10;1.00
38938;DHT22;24727;51.974;20.868;2023-02-04T12:50:06;-1.20;1.00
38938;DHT22;24727;51.974;20.868;2023-02-04T12:52:33;-1.20;1.00
38938;DHT22;24727;51.974;20.868;2023-02-04T12:54:59;-1.20;1.00
38938;DHT22;24727;51.974;20.868;2023-02-04T12:57:26;-1.20;1.00
38938;DHT22;24727;51.974;20.868;2023-02-04T12:59:52;-1.20;1.00
38938;DHT22;24727;51.974;20.868;2023-02-04T13:02:22;-1.20;1.00
38938;DHT22;24727;51.974;20.868;2023-02-04T13:04:48;-1.20;1.00
38938;DHT22;24727;51.974;20.868;2023-02-04T13:07:14;-1.20;1.00
38938;DHT22;24727;51.974;20.868;2023-02-04T13:09:41;-1.20;1.00
38938;DHT22;24727;51.974;20.868;2023-02-04T13:12:06;-1.20;1.00
38938;DHT22;24727;51.974;20.868;2023-02-04T13:14:33;-1.10;1.00
38938;DHT22;24727;51.974;20.868;2023-02-04T13:16:59;-1.20;1.00
38938;DHT22;24727;51.974;20.868;2023-02-04T13:19:25;-1.20;1.00
38938;DHT22;24727;51.974;20.868;2023-02-04T13:21:54;-1.30;1.00
38938;DHT22;24727;51.974;20.868;2023-02-04T13:24:20;-1.20;1.00
38938;DHT22;24727;51.974;20.868;2023-02-04T13:26:45;-1.20;1.00
38938;DHT22;24727;51.974;20.868;2023-02-04T13:29:11;-1.20;1.00
38938;DHT22;24727;51.974;20.868;2023-02-04T13:31:37;-1.20;1.00
38938;DHT22;24727;51.974;20.868;2023-02-04T13:34:04;-1.20;1.00
38938;DHT22;24727;51.974;20.868;2023-02-04T13:36:30;-1.20;1.00
38938;DHT22;24727;51.974;20.868;2023-02-04T13:38:57;-1.30;1.00
38938;DHT22;24727;51.974;20.868;2023-02-04T13:41:28;-1.20;1.00
38938;DHT22;24727;51.974;20.868;2023-02-04T13:43:55;-1.20;1.00
38938;DHT22;24727;51.974;20.868;2023-02-04T13:46:44;-1.20;1.00
38938;DHT22;24727;51.974;20.868;2023-02-04T13:49:17;-1.20;1.00
38938;DHT22;24727;51.974;20.868;2023-02-04T13:51:43;-1.20;1.00
38938;DHT22;24727;51.974;20.868;2023-02-04T13:54:09;-1.30;1.00
38938;DHT22;24727;51.974;20.868;2023-02-04T13:56:35;-1.30;1.00
38938;DHT22;24727;51.974;20.868;2023-02-04T13:59:02;-1.30;1.00
38938;DHT22;24727;51.974;20.868;2023-02-04T14:01:28;-1.30;1.00
38938;DHT22;24727;51.974;20.868;2023-02-04T14:03:59;-1.30;1.00
38938;DHT22;24727;51.974;20.868;2023-02-04T14:06:27;-1.30;1.00
38938;DHT22;24727;51.974;20.868;2023-02-04T14:08:59;-1.30;1.00
38938;DHT22;24727;51.974;20.868;2023-02-04T14:11:26;-1.30;1.00
38938;DHT22;24727;51.974;20.868;2023-02-04T14:13:53;-1.30;1.00
38938;DHT22;24727;51.974;20.868;2023-02-04T14:16:21;-1.30;1.00
38938;DHT22;24727;51.974;20.868;2023-02-04T14:18:47;-1.30;1.00
38938;DHT22;24727;51.974;20.868;2023-02-04T14:21:14;-1.20;1.00
38938;DHT22;24727;51.974;20.868;2023-02-04T14:23:43;-1.30;1.00
38938;DHT22;24727;51.974;20.868;2023-02-04T14:26:09;-1.20;1.00
38938;DHT22;24727;51.974;20.868;2023-02-04T14:28:35;-1.20;1.00
38938;DHT22;24727;51.974;20.868;2023-02-04T14:31:03;-1.20;1.00
38938;DHT22;24727;51.974;20.868;2023-02-04T14:33:29;-1.20;1.00
38938;DHT22;24727;51.974;20.868;2023-02-04T14:35:56;-1.30;1.00
38938;DHT22;24727;51.974;20.868;2023-02-04T14:38:31;-1.30;1.00
38938;DHT22;24727;51.974;20.868;2023-02-04T14:41:00;-1.30;1.00
38938;DHT22;24727;51.974;20.868;2023-02-04T14:43:27;-1.30;1.00
38938;DHT22;24727;51.974;20.868;2023-02-04T14:45:59;-1.30;1.00
38938;DHT22;24727;51.974;20.868;2023-02-04T14:48:26;-1.30;1.00
38938;DHT22;24727;51.974;20.868;2023-02-04T14:50:52;-1.40;1.00
38938;DHT22;24727;51.974;20.868;2023-02-04T14:53:20;-1.30;1.00
38938;DHT22;24727;51.974;20.868;2023-02-04T14:55:46;-1.30;1.00
38938;DHT22;24727;51.974;20.868;2023-02-04T14:58:12;-1.30;1.00
38938;DHT22;24727;51.974;20.868;2023-02-04T15:00:39;-1.30;1.00
38938;DHT22;24727;51.974;20.868;2023-02-04T15:03:05;-1.30;1.00
38938;DHT22;24727;51.974;20.868;2023-02-04T15:05:31;-1.40;1.00
38938;DHT22;24727;51.974;20.868;2023-02-04T15:07:57;-1.40;1.00
38938;DHT22;24727;51.974;20.868;2023-02-04T15:10:24;-1.40;1.00
38938;DHT22;24727;51.974;20.868;2023-02-04T15:12:51;-1.20;1.00
38938;DHT22;24727;51.974;20.868;2023-02-04T15:15:20;-1.30;1.00
38938;DHT22;24727;51.974;20.868;2023-02-04T15:17:46;-1.30;1.00
38938;DHT22;24727;51.974;20.868;2023-02-04T15:20:18;-1.40;1.00
38938;DHT22;24727;51.974;20.868;2023-02-04T15:22:44;-1.30;1.00
38938;DHT22;24727;51.974;20.868;2023-02-04T15:25:12;-1.30;1.00
38938;DHT22;24727;51.974;20.868;2023-02-04T15:27:39;-1.40;1.00
38938;DHT22;24727;51.974;20.868;2023-02-04T15:30:05;-1.50;1.00
38938;DHT22;24727;51.974;20.868;2023-02-04T15:32:32;-1.60;1.00
38938;DHT22;24727;51.974;20.868;2023-02-04T15:34:58;-1.60;1.00
38938;DHT22;24727;51.974;20.868;2023-02-04T15:37:24;-1.60;1.00
38938;DHT22;24727;51.974;20.868;2023-02-04T15:39:51;-1.60;1.00
38938;DHT22;24727;51.974;20.868;2023-02-04T15:42:18;-1.60;1.00
38938;DHT22;24727;51.974;20.868;2023-02-04T15:44:44;-1.70;1.00